Cill Choca, Ireland

12:43 PM IST on July 30, 2015 (GMT +0100)
Mooretown | | Change Station
CLOSE
Current Station
Personal Weather Station
Location: Rathcoffey, KILDARE
Elevation: 243 ft
Nearby Weather Stations

Elev 243 ft 53.33 °N, 6.69 °W | Updated 13 minutes ago

Mostly Cloudy
Mostly Cloudy
61.0 °F
Feels Like 61.0 °F
N
7.6
Wind Variable Wind from NW
Gusts 9.2 mph

Today
High -- | Low -- °F
--% Chance of Precip.
Yesterday
High -- | Low -- °F
Precip. -- in
5:39 AM 9:26 PM
Waxing Gibbous, 99% visible
Pressure 30.15 in
Visibility 6.2 miles
Clouds Mostly Cloudy 3000 ft
Dew Point 42 °F
Humidity 50%
Rainfall 0.00 in
Snow Depth Not available.
UV 4 out of 12
Pollen Not available.
Air Quality Not available.
Flu Activity Not available.
METAR EIME 301130Z 29011KT 9999 BKN030 14/07 Q1021

More Conditions Fewer Conditions

Pressure 30.15 in
Visibility 6.2 miles
Clouds Mostly Cloudy 3000 ft
Dew Point 42 °F
Humidity 50%
Rainfall 0.00 in
Snow Depth Not available.
UV 4 out of 12
Pollen Not available.
Air Quality Not available.
Flu Activity Not available.
METAR EIME 301130Z 29011KT 9999 BKN030 14/07 Q1021

More Conditions Fewer Conditions

10-Day Weather Forecast

×

Almanac

Astronomy

Jul. 30, 2015 Rise Set
Actual Time
Civil Twilight
Nautical Twilight
Astronomical Twilight
Moon
Length of Visible Light
Length of Day
Tomorrow will be .
, % of the Moon is Illuminated

Today's Extremes

Country Highs Country Lows

Community

WunderPhotos

Upload Photos

1,842,332 photos uploaded!

WunderBlogs® & News

Nearby

Air Quality

  Air Quality AQ Index Pollutant
Not available.

Snow Depth

Station Depth Elevation

Earthquake Activity

City Distance Mag. Time & Date
Minimum magnitude displayed is 2.5.

Coastal Water Temperatures

Place Temperature

Stations

Nearby Weather Stations

Station Location Temp. Windchill Dew Point Humidity Wind Precip. Elev Updated Type